TCA7766 SVVG-SVMI
Flight info
| Callsign | TCA7766 |
|---|---|
| Flight time | N/A |
| Altitude | 31000 |
| Route | VRA UW8 BRM UW40 PBL DCT ALDAK ALDAK1 |
| Aircraft | B738/M-SDE2E3FGHIRWXY/LB1 |
Departure
| Time | 2026-04-16 23:12 |
|---|---|
| Airport | Juan Pablo Pérez Alfonso Airport (SVVG) |
Arrival
| Time | N/A |
|---|---|
| Airport | Maiquetía Simón Bolívar International Airport (SVMI) |
| Time | Latitude | Longitude | Altitude | Speed | Heading |
|---|---|---|---|---|---|
| 2026-04-16 22:52 | 8.62341 | -71.66201 | 292 ft | 0 kts | 172° |
| 2026-04-16 23:05 | 8.62361 | -71.66204 | 297 ft | 4 kts | 167° |
| 2026-04-16 23:06 | 8.62387 | -71.66212 | 294 ft | 4 kts | 159° |
| 2026-04-16 23:06 | 8.62408 | -71.66221 | 295 ft | 1 kts | 153° |
| 2026-04-16 23:06 | 8.62412 | -71.66223 | 295 ft | 0 kts | 153° |
| 2026-04-16 23:08 | 8.62405 | -71.66210 | 298 ft | 7 kts | 108° |
| 2026-04-16 23:09 | 8.62411 | -71.66147 | 295 ft | 9 kts | 81° |
| 2026-04-16 23:09 | 8.62421 | -71.66084 | 298 ft | 9 kts | 81° |
| 2026-04-16 23:09 | 8.62430 | -71.66022 | 297 ft | 9 kts | 82° |
| 2026-04-16 23:09 | 8.62439 | -71.65962 | 296 ft | 8 kts | 81° |
| 2026-04-16 23:10 | 8.62457 | -71.65909 | 296 ft | 8 kts | 41° |
| 2026-04-16 23:10 | 8.62512 | -71.65904 | 294 ft | 8 kts | 354° |
| 2026-04-16 23:10 | 8.62566 | -71.65910 | 292 ft | 8 kts | 354° |
| 2026-04-16 23:10 | 8.62614 | -71.65887 | 293 ft | 8 kts | 43° |
| 2026-04-16 23:11 | 8.62631 | -71.65841 | 292 ft | 5 kts | 91° |
| 2026-04-16 23:11 | 8.62620 | -71.65838 | 292 ft | 2 kts | 207° |
| 2026-04-16 23:11 | 8.62612 | -71.65855 | 292 ft | 0 kts | 261° |
| 2026-04-16 23:11 | 8.62589 | -71.66018 | 297 ft | 65 kts | 262° |
| 2026-04-16 23:12 | 8.62482 | -71.66772 | 293 ft | 146 kts | 262° |
| 2026-04-16 23:12 | 8.62299 | -71.67929 | 804 ft | 163 kts | 261° |
| 2026-04-16 23:12 | 8.62513 | -71.68917 | 1984 ft | 157 kts | 308° |
| 2026-04-16 23:12 | 8.63309 | -71.69871 | 2304 ft | 195 kts | 296° |
| 2026-04-16 23:13 | 8.63852 | -71.71231 | 2546 ft | 223 kts | 301° |
| 2026-04-16 23:13 | 8.65093 | -71.72241 | 2801 ft | 243 kts | 341° |
| 2026-04-16 23:13 | 8.66835 | -71.72266 | 3079 ft | 264 kts | 19° |
| 2026-04-16 23:13 | 8.68323 | -71.71178 | 3764 ft | 270 kts | 52° |
| 2026-04-16 23:14 | 8.69397 | -71.69620 | 4674 ft | 271 kts | 55° |
| 2026-04-16 23:14 | 8.70520 | -71.68066 | 5470 ft | 275 kts | 52° |
| 2026-04-16 23:14 | 8.71746 | -71.66569 | 6295 ft | 278 kts | 49° |
| 2026-04-16 23:14 | 8.73051 | -71.65138 | 7043 ft | 282 kts | 46° |
| 2026-04-16 23:15 | 8.75913 | -71.62323 | 8542 ft | 290 kts | 43° |
| 2026-04-16 23:15 | 8.77393 | -71.60960 | 9282 ft | 293 kts | 42° |
| 2026-04-16 23:15 | 8.78929 | -71.59580 | 10022 ft | 297 kts | 42° |
| 2026-04-16 23:16 | 8.80524 | -71.58169 | 10373 ft | 316 kts | 41° |
| 2026-04-16 23:16 | 8.82248 | -71.56658 | 10595 ft | 336 kts | 41° |
| 2026-04-16 23:16 | 8.84047 | -71.55094 | 11118 ft | 344 kts | 41° |
| 2026-04-16 23:16 | 8.85876 | -71.53509 | 11779 ft | 348 kts | 41° |
| 2026-04-16 23:17 | 8.87722 | -71.51912 | 12459 ft | 351 kts | 41° |
| 2026-04-16 23:17 | 8.89588 | -71.50298 | 13090 ft | 355 kts | 40° |
| 2026-04-16 23:17 | 8.91478 | -71.48664 | 13730 ft | 359 kts | 40° |
| 2026-04-16 23:17 | 8.93385 | -71.47016 | 14298 ft | 363 kts | 40° |
| 2026-04-16 23:18 | 8.95313 | -71.45348 | 14864 ft | 366 kts | 40° |
| 2026-04-16 23:18 | 8.97255 | -71.43669 | 15426 ft | 369 kts | 40° |
| 2026-04-16 23:18 | 8.99217 | -71.41972 | 16471 ft | 372 kts | 39° |
| 2026-04-16 23:18 | 9.01145 | -71.40217 | 15780 ft | 372 kts | 49° |
| 2026-04-16 23:19 | 9.02496 | -71.38002 | 15844 ft | 373 kts | 68° |
| 2026-04-16 23:19 | 9.03123 | -71.35458 | 15786 ft | 378 kts | 85° |
| 2026-04-16 23:19 | 9.03283 | -71.32808 | 15838 ft | 373 kts | 88° |
| 2026-04-16 23:19 | 9.03397 | -71.30191 | 15883 ft | 372 kts | 88° |
| 2026-04-16 23:20 | 9.03493 | -71.27568 | 15939 ft | 374 kts | 88° |
| 2026-04-16 23:20 | 9.03580 | -71.24997 | 16834 ft | 360 kts | 88° |
| 2026-04-16 23:20 | 9.03665 | -71.22516 | 17702 ft | 354 kts | 88° |
| 2026-04-16 23:20 | 9.03764 | -71.20054 | 18565 ft | 346 kts | 84° |
| 2026-04-16 23:21 | 9.04249 | -71.17618 | 18656 ft | 366 kts | 68° |
| 2026-04-16 23:21 | 9.05445 | -71.15304 | 18818 ft | 379 kts | 57° |
| 2026-04-16 23:21 | 9.06900 | -71.13016 | 18965 ft | 393 kts | 56° |
| 2026-04-16 23:21 | 9.08411 | -71.10681 | 19311 ft | 399 kts | 56° |
| 2026-04-16 23:22 | 9.09935 | -71.08312 | 19790 ft | 402 kts | 56° |
| 2026-04-16 23:22 | 9.11453 | -71.05926 | 20276 ft | 404 kts | 56° |
| 2026-04-16 23:22 | 9.12968 | -71.03522 | 20730 ft | 407 kts | 57° |
| 2026-04-16 23:22 | 9.14491 | -71.01087 | 21167 ft | 411 kts | 57° |
| 2026-04-16 23:23 | 9.16020 | -70.98630 | 21585 ft | 414 kts | 57° |
| 2026-04-16 23:23 | 9.17542 | -70.96180 | 22017 ft | 417 kts | 57° |
| 2026-04-16 23:23 | 9.19094 | -70.93679 | 22448 ft | 420 kts | 57° |
| 2026-04-16 23:23 | 9.20657 | -70.91159 | 22871 ft | 423 kts | 57° |
| 2026-04-16 23:24 | 9.22228 | -70.88626 | 23269 ft | 426 kts | 57° |
| 2026-04-16 23:24 | 9.23795 | -70.86099 | 23645 ft | 429 kts | 57° |
| 2026-04-16 23:24 | 9.25388 | -70.83531 | 23960 ft | 433 kts | 57° |
| 2026-04-16 23:24 | 9.26991 | -70.80945 | 24295 ft | 435 kts | 57° |
| 2026-04-16 23:25 | 9.28607 | -70.78339 | 24625 ft | 438 kts | 57° |
| 2026-04-16 23:25 | 9.30231 | -70.75718 | 24944 ft | 441 kts | 57° |
| 2026-04-16 23:25 | 9.31866 | -70.73080 | 25258 ft | 444 kts | 57° |
| 2026-04-16 23:25 | 9.33510 | -70.70425 | 25582 ft | 446 kts | 57° |
| 2026-04-16 23:26 | 9.35166 | -70.67752 | 25889 ft | 449 kts | 57° |
| 2026-04-16 23:26 | 9.36833 | -70.65060 | 26177 ft | 452 kts | 57° |
| 2026-04-16 23:26 | 9.38487 | -70.62387 | 26473 ft | 455 kts | 57° |
| 2026-04-16 23:26 | 9.40175 | -70.59660 | 26761 ft | 457 kts | 57° |
| 2026-04-16 23:27 | 9.41874 | -70.56916 | 27056 ft | 460 kts | 57° |
| 2026-04-16 23:27 | 9.43512 | -70.54126 | 27337 ft | 463 kts | 60° |
| 2026-04-16 23:27 | 9.45045 | -70.51248 | 27616 ft | 465 kts | 62° |
| 2026-04-16 23:27 | 9.46527 | -70.48330 | 27913 ft | 468 kts | 63° |
| 2026-04-16 23:28 | 9.48001 | -70.45384 | 28294 ft | 467 kts | 63° |
| 2026-04-16 23:28 | 9.49472 | -70.42447 | 28713 ft | 467 kts | 63° |
| 2026-04-16 23:28 | 9.50953 | -70.39512 | 29089 ft | 467 kts | 62° |
| 2026-04-16 23:28 | 9.52438 | -70.36592 | 29464 ft | 467 kts | 62° |
| 2026-04-16 23:29 | 9.53919 | -70.33696 | 29853 ft | 467 kts | 62° |
| 2026-04-16 23:29 | 9.55419 | -70.30773 | 30205 ft | 467 kts | 62° |
| 2026-04-16 23:29 | 9.56917 | -70.27856 | 30566 ft | 466 kts | 62° |
| 2026-04-16 23:29 | 9.58416 | -70.24939 | 30906 ft | 466 kts | 62° |
| 2026-04-16 23:30 | 9.59918 | -70.22016 | 30950 ft | 470 kts | 62° |
| 2026-04-16 23:30 | 9.62933 | -70.16142 | 30959 ft | 467 kts | 62° |
| 2026-04-16 23:31 | 9.65919 | -70.10320 | 30970 ft | 465 kts | 63° |
| 2026-04-16 23:31 | 9.68909 | -70.04486 | 30957 ft | 466 kts | 63° |
| 2026-04-16 23:32 | 9.71878 | -69.98690 | 30972 ft | 466 kts | 63° |
| 2026-04-16 23:32 | 9.74868 | -69.92850 | 30963 ft | 467 kts | 63° |
| 2026-04-16 23:33 | 9.77865 | -69.86995 | 30957 ft | 468 kts | 63° |
| 2026-04-16 23:33 | 9.80864 | -69.81131 | 30962 ft | 467 kts | 63° |
| 2026-04-16 23:34 | 9.83859 | -69.75273 | 30957 ft | 468 kts | 63° |
| 2026-04-16 23:34 | 9.86838 | -69.69442 | 30949 ft | 468 kts | 63° |
| 2026-04-16 23:35 | 9.89834 | -69.63575 | 30946 ft | 468 kts | 63° |
| 2026-04-16 23:35 | 9.92832 | -69.57702 | 30941 ft | 468 kts | 63° |
| 2026-04-16 23:36 | 9.95821 | -69.51843 | 30938 ft | 467 kts | 63° |
| 2026-04-16 23:36 | 9.98807 | -69.45986 | 30933 ft | 467 kts | 63° |
| 2026-04-16 23:37 | 10.01774 | -69.40163 | 30937 ft | 467 kts | 63° |
| 2026-04-16 23:37 | 10.04682 | -69.34273 | 30923 ft | 467 kts | 69° |
| 2026-04-16 23:38 | 10.06889 | -69.28089 | 30930 ft | 466 kts | 72° |
| 2026-04-16 23:38 | 10.08988 | -69.21874 | 30917 ft | 460 kts | 72° |
| 2026-04-16 23:38 | 10.10019 | -69.18848 | 30903 ft | 447 kts | 72° |
| 2026-04-16 23:39 | 10.11035 | -69.15890 | 30915 ft | 440 kts | 72° |
| 2026-04-16 23:39 | 10.13064 | -69.10030 | 30832 ft | 441 kts | 71° |
| 2026-04-16 23:39 | 10.14070 | -69.07133 | 30527 ft | 440 kts | 71° |
| 2026-04-16 23:40 | 10.15084 | -69.04215 | 30195 ft | 436 kts | 71° |
| 2026-04-16 23:40 | 10.16090 | -69.01320 | 29826 ft | 434 kts | 71° |
| 2026-04-16 23:40 | 10.17089 | -68.98446 | 29399 ft | 431 kts | 71° |
| 2026-04-16 23:40 | 10.18084 | -68.95580 | 29001 ft | 428 kts | 71° |
| 2026-04-16 23:41 | 10.19072 | -68.92734 | 28602 ft | 425 kts | 71° |
| 2026-04-16 23:41 | 10.20052 | -68.89908 | 28221 ft | 423 kts | 71° |
| 2026-04-16 23:41 | 10.21024 | -68.87107 | 27837 ft | 420 kts | 71° |
| 2026-04-16 23:41 | 10.21991 | -68.84317 | 27449 ft | 417 kts | 71° |
| 2026-04-16 23:42 | 10.22953 | -68.81541 | 27070 ft | 415 kts | 71° |
| 2026-04-16 23:42 | 10.23908 | -68.78785 | 26687 ft | 413 kts | 71° |
| 2026-04-16 23:42 | 10.24857 | -68.76043 | 26305 ft | 411 kts | 70° |
| 2026-04-16 23:42 | 10.25803 | -68.73311 | 25899 ft | 410 kts | 70° |
| 2026-04-16 23:43 | 10.26747 | -68.70586 | 25517 ft | 408 kts | 70° |
| 2026-04-16 23:43 | 10.27687 | -68.67867 | 25132 ft | 407 kts | 70° |
| 2026-04-16 23:43 | 10.28624 | -68.65160 | 24731 ft | 406 kts | 70° |
| 2026-04-16 23:43 | 10.29560 | -68.62454 | 24344 ft | 405 kts | 70° |
| 2026-04-16 23:44 | 10.30481 | -68.59790 | 23966 ft | 405 kts | 70° |
| 2026-04-16 23:44 | 10.31413 | -68.57093 | 23573 ft | 404 kts | 70° |
| 2026-04-16 23:44 | 10.32343 | -68.54401 | 23121 ft | 403 kts | 70° |
| 2026-04-16 23:44 | 10.33270 | -68.51720 | 22722 ft | 400 kts | 70° |
| 2026-04-16 23:45 | 10.34188 | -68.49061 | 22327 ft | 398 kts | 70° |
| 2026-04-16 23:45 | 10.35101 | -68.46416 | 21936 ft | 395 kts | 70° |
| 2026-04-16 23:45 | 10.36009 | -68.43785 | 21552 ft | 393 kts | 70° |
| 2026-04-16 23:45 | 10.36909 | -68.41177 | 21168 ft | 391 kts | 70° |
| 2026-04-16 23:46 | 10.37807 | -68.38573 | 20779 ft | 389 kts | 70° |
| 2026-04-16 23:46 | 10.38700 | -68.35984 | 20391 ft | 387 kts | 70° |
| 2026-04-16 23:46 | 10.39587 | -68.33411 | 19997 ft | 385 kts | 70° |
| 2026-04-16 23:46 | 10.40470 | -68.30848 | 19611 ft | 384 kts | 70° |
| 2026-04-16 23:47 | 10.41339 | -68.28327 | 19223 ft | 382 kts | 70° |
| 2026-04-16 23:47 | 10.42219 | -68.25773 | 18841 ft | 381 kts | 70° |
| 2026-04-16 23:47 | 10.43092 | -68.23236 | 18446 ft | 380 kts | 70° |
| 2026-04-16 23:47 | 10.43963 | -68.20705 | 18032 ft | 379 kts | 70° |
| 2026-04-16 23:48 | 10.44538 | -68.19035 | 17757 ft | 377 kts | 70° |
| 2026-04-16 23:48 | 10.45400 | -68.16528 | 17359 ft | 374 kts | 70° |
| 2026-04-16 23:48 | 10.46254 | -68.14045 | 16988 ft | 371 kts | 70° |
| 2026-04-16 23:48 | 10.47102 | -68.11578 | 16600 ft | 368 kts | 70° |
| 2026-04-16 23:49 | 10.47944 | -68.09130 | 16223 ft | 365 kts | 70° |
| 2026-04-16 23:49 | 10.48959 | -68.05884 | 15726 ft | 362 kts | 75° |
| 2026-04-16 23:49 | 10.49375 | -68.04212 | 15474 ft | 361 kts | 76° |
| 2026-04-16 23:49 | 10.49945 | -68.01734 | 15103 ft | 359 kts | 77° |
| 2026-04-16 23:50 | 10.50450 | -67.99483 | 14762 ft | 357 kts | 77° |